createdAt,value
2018-12-18T00:00:34.656Z,11.57
2018-12-18T00:03:01.436Z,13.10
2018-12-18T00:05:34.244Z,11.07
2018-12-18T00:08:01.352Z,12.90
2018-12-18T00:10:33.691Z,11.63
2018-12-18T00:13:00.460Z,11.73
2018-12-18T00:15:27.212Z,11.57
2018-12-18T00:17:54.080Z,10.67
2018-12-18T00:20:20.822Z,9.93
2018-12-18T00:22:47.584Z,10.10
2018-12-18T00:25:14.324Z,10.57
2018-12-18T00:27:41.081Z,10.50
2018-12-18T00:30:07.839Z,11.30
2018-12-18T00:32:34.604Z,11.10
2018-12-18T00:35:01.362Z,10.80
2018-12-18T00:37:28.127Z,11.70
2018-12-18T00:39:54.881Z,12.00
2018-12-18T00:42:21.653Z,15.80
2018-12-18T00:44:48.401Z,15.20
2018-12-18T00:47:15.140Z,14.20
2018-12-18T00:49:41.896Z,11.70
2018-12-18T00:52:08.636Z,12.00
2018-12-18T00:54:35.392Z,13.10
2018-12-18T00:57:02.148Z,13.37
2018-12-18T00:59:28.960Z,16.10
2018-12-18T01:02:00.144Z,12.80
2018-12-18T01:04:27.328Z,12.90
2018-12-18T01:06:54.076Z,13.33
2018-12-18T01:09:20.852Z,13.00
2018-12-18T01:11:47.601Z,13.70
2018-12-18T01:14:14.369Z,14.20
2018-12-18T01:16:41.156Z,18.30
2018-12-18T01:19:07.909Z,16.53
2018-12-18T01:21:34.660Z,16.03
2018-12-18T01:24:01.437Z,18.12
2018-12-18T01:26:28.176Z,15.57
2018-12-18T01:28:54.948Z,15.13
2018-12-18T01:31:21.696Z,13.80
2018-12-18T01:33:48.461Z,13.43
2018-12-18T01:36:15.195Z,12.70
2018-12-18T01:38:41.950Z,13.50
2018-12-18T01:41:08.692Z,13.37
2018-12-18T01:43:35.460Z,14.77
2018-12-18T01:46:02.200Z,19.60
2018-12-18T01:48:28.956Z,18.50
2018-12-18T01:50:55.708Z,14.50
2018-12-18T01:53:22.468Z,13.83
2018-12-18T01:55:49.205Z,13.70
2018-12-18T01:58:15.964Z,14.00
2018-12-18T02:00:42.708Z,11.63
2018-12-18T02:03:09.492Z,12.00
2018-12-18T02:05:36.240Z,12.13
2018-12-18T02:08:02.986Z,10.80
2018-12-18T02:10:29.753Z,13.00
2018-12-18T02:12:56.500Z,13.30
2018-12-18T02:15:23.272Z,14.37
2018-12-18T02:17:50.011Z,18.27
2018-12-18T02:20:16.876Z,16.40
2018-12-18T02:22:43.633Z,14.97
2018-12-18T02:25:10.393Z,14.40
2018-12-18T02:27:37.147Z,13.20
2018-12-18T02:30:04.779Z,13.20
2018-12-18T02:32:31.522Z,17.57
2018-12-18T02:34:58.284Z,15.00
2018-12-18T02:37:25.033Z,14.23
2018-12-18T02:39:51.789Z,13.03
2018-12-18T02:42:18.544Z,14.57
2018-12-18T02:44:45.344Z,14.83
2018-12-18T02:47:12.082Z,17.27
2018-12-18T02:49:38.856Z,15.37
2018-12-18T02:52:05.595Z,17.20
2018-12-18T02:54:32.360Z,22.30
2018-12-18T02:56:59.099Z,22.48
2018-12-18T02:59:25.890Z,19.00
2018-12-18T03:01:52.652Z,22.17
2018-12-18T03:04:21.793Z,18.30
2018-12-18T03:06:46.160Z,17.27
2018-12-18T03:09:12.921Z,16.60
2018-12-18T03:11:39.668Z,16.40
2018-12-18T03:14:06.425Z,16.70
2018-12-18T03:16:33.172Z,17.87
2018-12-18T03:18:59.944Z,17.07
2018-12-18T03:21:26.697Z,20.10
2018-12-18T03:23:53.468Z,19.00
2018-12-18T03:26:20.210Z,18.50
2018-12-18T03:28:46.977Z,19.43
2018-12-18T03:31:13.725Z,17.97
2018-12-18T03:33:40.492Z,25.50
2018-12-18T03:36:07.233Z,21.03
2018-12-18T03:38:33.987Z,21.23
2018-12-18T03:41:00.729Z,19.53
2018-12-18T03:43:27.472Z,20.13
2018-12-18T03:45:54.246Z,22.17
2018-12-18T03:48:20.981Z,21.40
2018-12-18T03:50:47.744Z,21.10
2018-12-18T03:53:14.481Z,21.70
2018-12-18T03:55:41.244Z,31.90
2018-12-18T03:58:07.985Z,24.80
2018-12-18T04:00:34.752Z,20.77
2018-12-18T04:03:01.514Z,18.33
2018-12-18T04:05:28.276Z,17.07
2018-12-18T04:07:55.024Z,18.83
2018-12-18T04:10:21.797Z,18.57
2018-12-18T04:12:48.533Z,15.60
2018-12-18T04:15:15.303Z,13.17
2018-12-18T04:17:42.041Z,13.10
2018-12-18T04:20:08.800Z,12.47
2018-12-18T04:22:35.542Z,18.67
2018-12-18T04:25:02.316Z,13.73
2018-12-18T04:27:29.054Z,15.60
2018-12-18T04:29:55.824Z,14.77
2018-12-18T04:32:22.565Z,17.90
2018-12-18T04:34:49.325Z,14.80
2018-12-18T04:37:16.064Z,14.47
2018-12-18T04:39:42.838Z,12.03
2018-12-18T04:42:09.572Z,14.70
2018-12-18T04:44:36.333Z,15.33
2018-12-18T04:47:03.081Z,14.40
2018-12-18T04:49:29.844Z,16.10
2018-12-18T04:51:56.584Z,23.20
2018-12-18T04:54:23.355Z,18.87
2018-12-18T04:56:50.119Z,18.70
2018-12-18T04:59:16.883Z,18.37
2018-12-18T05:01:43.626Z,17.40
2018-12-18T05:04:10.401Z,18.80
2018-12-18T05:06:37.148Z,20.83
2018-12-18T05:09:07.100Z,14.83
2018-12-18T05:11:33.847Z,13.60
2018-12-18T05:14:00.600Z,13.27
2018-12-18T05:16:27.332Z,19.10
2018-12-18T05:18:54.124Z,16.10
2018-12-18T05:21:20.893Z,22.93
2018-12-18T05:23:47.637Z,22.90
2018-12-18T05:26:14.531Z,43.23
2018-12-18T05:28:41.266Z,39.35
2018-12-18T05:31:08.012Z,28.30
2018-12-18T05:33:34.741Z,23.80
2018-12-18T05:36:01.508Z,23.17
2018-12-18T05:38:28.260Z,16.67
2018-12-18T05:40:55.030Z,20.67
2018-12-18T05:43:21.803Z,16.67
2018-12-18T05:45:48.616Z,21.23
2018-12-18T05:48:15.592Z,25.45
2018-12-18T05:50:42.358Z,26.50
2018-12-18T05:53:09.088Z,23.30
2018-12-18T05:55:35.913Z,20.97
2018-12-18T05:58:02.636Z,22.60
2018-12-18T06:00:29.396Z,20.90
2018-12-18T06:02:56.153Z,25.27
2018-12-18T06:05:22.903Z,32.40
2018-12-18T06:07:49.661Z,22.90
2018-12-18T06:10:16.417Z,30.90
2018-12-18T06:12:43.181Z,23.23
2018-12-18T06:15:09.944Z,31.20
2018-12-18T06:17:36.684Z,20.00
2018-12-18T06:20:03.520Z,29.10
2018-12-18T06:22:30.307Z,31.12
2018-12-18T06:24:57.016Z,29.15
2018-12-18T06:27:23.760Z,21.43
2018-12-18T06:29:50.532Z,23.70
2018-12-18T06:32:17.276Z,16.73
2018-12-18T06:34:44.050Z,16.67
2018-12-18T06:37:10.784Z,20.85
2018-12-18T06:39:37.610Z,21.43
2018-12-18T06:42:04.357Z,28.40
2018-12-18T06:44:31.144Z,18.43
2018-12-18T06:46:57.892Z,21.37
2018-12-18T06:49:24.659Z,26.33
2018-12-18T06:51:51.413Z,19.03
2018-12-18T06:54:18.172Z,18.80
2018-12-18T06:56:44.932Z,17.10
2018-12-18T06:59:11.668Z,16.27
2018-12-18T07:01:38.440Z,15.57
2018-12-18T07:04:05.181Z,16.30
2018-12-18T07:06:32.044Z,17.10
2018-12-18T07:08:58.778Z,15.63
2018-12-18T07:11:25.525Z,16.00
2018-12-18T07:13:52.277Z,15.10
2018-12-18T07:16:19.032Z,23.00
2018-12-18T07:18:45.772Z,16.73
2018-12-18T07:21:12.564Z,16.00
2018-12-18T07:23:39.320Z,16.00
2018-12-18T07:26:06.092Z,14.40
2018-12-18T07:28:32.836Z,16.17
2018-12-18T07:30:59.610Z,21.43
2018-12-18T07:33:26.360Z,21.80
2018-12-18T07:35:53.139Z,18.70
2018-12-18T07:38:19.872Z,19.97
2018-12-18T07:40:46.637Z,18.03
2018-12-18T07:43:13.392Z,25.63
2018-12-18T07:45:40.154Z,25.60
2018-12-18T07:48:06.967Z,21.03
2018-12-18T07:50:33.664Z,24.07
2018-12-18T07:53:00.444Z,17.13
2018-12-18T07:55:27.220Z,22.80
2018-12-18T07:57:53.971Z,19.00
2018-12-18T08:00:20.737Z,14.87
2018-12-18T08:02:47.484Z,13.73
2018-12-18T08:05:14.244Z,14.20
2018-12-18T08:07:40.988Z,16.70
2018-12-18T08:10:07.763Z,14.50
2018-12-18T08:12:34.507Z,15.70
2018-12-18T08:15:01.252Z,14.27
2018-12-18T08:17:28.002Z,15.77
2018-12-18T08:19:54.768Z,14.50
2018-12-18T08:22:21.504Z,14.50
2018-12-18T08:24:48.262Z,13.30
2018-12-18T08:27:15.011Z,12.80
2018-12-18T08:29:41.748Z,13.30
2018-12-18T08:32:09.569Z,12.73
2018-12-18T08:34:35.260Z,16.80
2018-12-18T08:37:02.024Z,12.60
2018-12-18T08:39:28.775Z,13.23
2018-12-18T08:41:55.517Z,13.20
2018-12-18T08:44:22.249Z,12.10
2018-12-18T08:46:49.020Z,10.70
2018-12-18T08:49:15.741Z,11.60
2018-12-18T08:51:42.504Z,11.77
2018-12-18T08:54:09.260Z,11.23
2018-12-18T08:56:36.065Z,11.80
2018-12-18T08:59:02.792Z,12.17
2018-12-18T09:01:29.544Z,12.23
2018-12-18T09:03:56.288Z,12.30
2018-12-18T09:06:23.052Z,16.20
2018-12-18T09:08:49.799Z,12.60
2018-12-18T09:11:16.557Z,10.10
2018-12-18T09:13:43.292Z,8.30
2018-12-18T09:16:15.864Z,8.13
2018-12-18T09:18:42.604Z,8.27
2018-12-18T09:21:09.373Z,8.10
2018-12-18T09:23:36.113Z,7.90
2018-12-18T09:26:02.876Z,8.17
2018-12-18T09:28:29.609Z,6.97
2018-12-18T09:30:56.365Z,6.70
2018-12-18T09:33:23.120Z,7.17
2018-12-18T09:35:50.037Z,10.20
2018-12-18T09:38:22.304Z,10.10
2018-12-18T09:40:54.924Z,8.23
2018-12-18T09:43:27.440Z,9.27
2018-12-18T09:45:54.208Z,8.80
2018-12-18T09:48:21.024Z,9.30
2018-12-18T09:50:47.788Z,10.37
2018-12-18T09:53:14.680Z,9.33
2018-12-18T09:55:41.451Z,9.33
2018-12-18T09:58:11.072Z,9.10
2018-12-18T10:00:37.900Z,8.33
2018-12-18T10:03:04.664Z,9.30
2018-12-18T10:05:31.416Z,9.00
2018-12-18T10:07:58.176Z,8.50
2018-12-18T10:10:24.982Z,10.20
2018-12-18T10:12:55.460Z,8.67
2018-12-18T10:15:22.708Z,7.67
2018-12-18T10:17:49.455Z,8.40
2018-12-18T10:20:16.192Z,9.50
2018-12-18T10:22:42.944Z,7.77
2018-12-18T10:25:09.674Z,7.20
2018-12-18T10:27:36.408Z,8.47
2018-12-18T10:30:03.200Z,7.90
2018-12-18T10:32:29.931Z,6.57
2018-12-18T10:34:56.689Z,6.80
2018-12-18T10:37:23.421Z,6.80
2018-12-18T10:39:50.184Z,7.30
2018-12-18T10:42:16.927Z,8.43
2018-12-18T10:44:43.680Z,7.77
2018-12-18T10:47:10.425Z,9.60
2018-12-18T10:49:37.184Z,9.20
2018-12-18T10:52:03.912Z,9.70
2018-12-18T10:54:30.689Z,10.23
2018-12-18T10:56:57.434Z,11.67
2018-12-18T10:59:24.193Z,10.80
2018-12-18T11:01:50.939Z,11.93
2018-12-18T11:04:17.700Z,13.07
2018-12-18T11:06:44.440Z,18.47
2018-12-18T11:09:11.216Z,18.43
2018-12-18T11:11:37.969Z,15.57
2018-12-18T11:14:04.832Z,13.37
2018-12-18T11:16:37.108Z,14.10
2018-12-18T11:18:58.340Z,13.57
2018-12-18T11:21:25.079Z,12.87
2018-12-18T11:23:51.837Z,13.83
2018-12-18T11:26:18.572Z,15.43
2018-12-18T11:28:45.350Z,12.80
2018-12-18T11:31:12.107Z,13.20
2018-12-18T11:33:38.868Z,15.70
2018-12-18T11:36:05.606Z,14.60
2018-12-18T11:38:32.365Z,14.10
2018-12-18T11:40:59.104Z,12.43
2018-12-18T11:43:25.872Z,12.60
2018-12-18T11:45:52.608Z,13.00
2018-12-18T11:48:19.392Z,10.90
2018-12-18T11:50:46.141Z,11.80
2018-12-18T11:53:12.873Z,11.87
2018-12-18T11:55:39.664Z,11.90
2018-12-18T11:58:06.407Z,15.60
2018-12-18T12:00:33.184Z,13.00
2018-12-18T12:02:59.934Z,12.67
2018-12-18T12:05:26.706Z,12.50
2018-12-18T12:07:53.444Z,12.80
2018-12-18T12:10:20.220Z,13.80
2018-12-18T12:12:46.975Z,12.33
2018-12-18T12:15:13.740Z,11.37
2018-12-18T12:17:40.481Z,12.67
2018-12-18T12:20:07.252Z,12.70
2018-12-18T12:22:33.996Z,16.37
2018-12-18T12:25:00.860Z,13.27
2018-12-18T12:27:32.568Z,14.57
2018-12-18T12:29:59.328Z,13.10
2018-12-18T12:32:26.120Z,13.60
2018-12-18T12:34:52.888Z,12.80
2018-12-18T12:37:19.643Z,13.30
2018-12-18T12:39:46.412Z,13.80
2018-12-18T12:42:13.507Z,13.47
2018-12-18T12:44:40.273Z,11.77
2018-12-18T12:47:07.021Z,10.30
2018-12-18T12:49:39.608Z,11.57
2018-12-18T12:52:06.357Z,10.97
2018-12-18T12:54:33.124Z,11.23
2018-12-18T12:56:59.880Z,10.10
2018-12-18T12:59:26.640Z,10.60
2018-12-18T13:01:53.459Z,10.27
2018-12-18T13:04:20.217Z,10.13
2018-12-18T13:06:47.273Z,10.73
2018-12-18T13:09:14.041Z,9.93
2018-12-18T13:11:40.777Z,8.43
2018-12-18T13:14:07.636Z,8.23
2018-12-18T13:16:36.002Z,8.13
2018-12-18T13:19:02.817Z,7.50
2018-12-18T13:21:29.785Z,7.87
2018-12-18T13:24:00.592Z,8.00
2018-12-18T13:26:27.441Z,7.30
2018-12-18T13:28:54.258Z,7.90
2018-12-18T13:31:21.163Z,8.37
2018-12-18T13:33:48.007Z,7.57
2018-12-18T13:36:14.812Z,7.57
2018-12-18T13:38:41.640Z,7.67
2018-12-18T13:41:09.254Z,8.70
2018-12-18T13:43:36.041Z,7.63
2018-12-18T13:46:02.882Z,7.83
2018-12-18T13:48:29.704Z,7.00
2018-12-18T13:50:56.549Z,7.50
2018-12-18T13:53:23.333Z,7.37
2018-12-18T13:55:50.104Z,6.30
2018-12-18T13:58:16.876Z,5.70
2018-12-18T14:00:43.725Z,5.60
2018-12-18T14:03:10.496Z,5.87
2018-12-18T14:05:37.337Z,6.17
2018-12-18T14:08:04.040Z,6.10
2018-12-18T14:10:30.809Z,5.13
2018-12-18T14:12:57.560Z,4.87
2018-12-18T14:15:24.669Z,3.17
2018-12-18T14:17:51.444Z,3.60
2018-12-18T14:20:18.218Z,3.30
2018-12-18T14:22:45.101Z,3.83
2018-12-18T14:25:11.844Z,3.63
2018-12-18T14:27:38.592Z,3.37
2018-12-18T14:30:05.380Z,5.03
2018-12-18T14:32:32.114Z,15.32
2018-12-18T14:34:58.872Z,5.63
2018-12-18T14:37:25.629Z,5.30
2018-12-18T14:39:52.392Z,5.97
2018-12-18T14:42:19.144Z,4.63
2018-12-18T14:44:45.900Z,6.63
2018-12-18T14:47:12.676Z,9.93
2018-12-18T14:49:39.536Z,5.87
2018-12-18T14:52:06.389Z,5.67
2018-12-18T14:54:33.211Z,5.47
2018-12-18T14:57:00.084Z,4.73
2018-12-18T14:59:26.829Z,5.40
2018-12-18T15:01:53.660Z,4.77
2018-12-18T15:04:20.497Z,5.57
2018-12-18T15:06:47.272Z,5.53
2018-12-18T15:09:14.024Z,5.97
2018-12-18T15:11:40.810Z,5.63
2018-12-18T15:14:07.568Z,5.40
2018-12-18T15:16:34.416Z,4.67
2018-12-18T15:19:01.233Z,5.43
2018-12-18T15:21:28.042Z,4.90
2018-12-18T15:23:54.782Z,4.80
2018-12-18T15:26:21.646Z,4.50
2018-12-18T15:28:48.501Z,5.40
2018-12-18T15:31:15.260Z,6.73
2018-12-18T15:33:42.025Z,5.83
2018-12-18T15:36:08.858Z,6.43
2018-12-18T15:38:35.620Z,6.43
2018-12-18T15:41:02.396Z,7.53
2018-12-18T15:43:29.160Z,10.10
2018-12-18T15:45:55.920Z,10.57
2018-12-18T15:48:22.674Z,12.10
2018-12-18T15:50:49.432Z,15.70
2018-12-18T15:53:16.184Z,14.47
2018-12-18T15:55:42.934Z,15.20
2018-12-18T15:58:09.809Z,13.53
2018-12-18T16:00:36.572Z,14.40
2018-12-18T16:03:03.324Z,16.40
2018-12-18T16:05:30.070Z,18.57
2018-12-18T16:07:56.838Z,18.90
2018-12-18T16:10:23.592Z,16.13
2018-12-18T16:12:50.385Z,16.30
2018-12-18T16:15:17.136Z,15.13
2018-12-18T16:17:43.891Z,13.80
2018-12-18T16:20:10.651Z,14.23
2018-12-18T16:22:37.435Z,13.07
2018-12-18T16:25:04.252Z,14.23
2018-12-18T16:27:31.015Z,15.03
2018-12-18T16:29:57.773Z,13.87
2018-12-18T16:32:24.580Z,12.80
2018-12-18T16:34:51.358Z,11.80
2018-12-18T16:37:22.943Z,13.87
2018-12-18T16:39:44.986Z,14.63
2018-12-18T16:42:11.783Z,13.37
2018-12-18T16:44:38.546Z,13.83
2018-12-18T16:47:05.317Z,12.83
2018-12-18T16:49:32.073Z,12.37
2018-12-18T16:51:58.856Z,12.43
2018-12-18T16:54:25.604Z,11.10
2018-12-18T16:56:52.380Z,10.27
2018-12-18T16:59:19.144Z,13.87
2018-12-18T17:01:45.984Z,19.43
2018-12-18T17:04:12.736Z,20.40
2018-12-18T17:06:39.544Z,23.33
2018-12-18T17:09:06.401Z,29.40
2018-12-18T17:11:33.175Z,19.80
2018-12-18T17:13:59.953Z,22.40
2018-12-18T17:16:26.692Z,22.63
2018-12-18T17:18:53.497Z,21.60
2018-12-18T17:21:20.252Z,16.37
2018-12-18T17:23:47.012Z,14.90
2018-12-18T17:26:13.764Z,18.27
2018-12-18T17:28:40.540Z,15.20
2018-12-18T17:31:07.288Z,16.13
2018-12-18T17:33:34.081Z,17.47
2018-12-18T17:36:00.830Z,16.20
2018-12-18T17:38:27.611Z,14.47
2018-12-18T17:40:54.364Z,15.40
2018-12-18T17:43:21.127Z,15.70
2018-12-18T17:45:47.873Z,15.23
2018-12-18T17:48:14.652Z,13.77
2018-12-18T17:50:41.393Z,13.23
2018-12-18T17:53:08.152Z,13.60
2018-12-18T17:55:34.944Z,14.33
2018-12-18T17:58:01.824Z,16.00
2018-12-18T18:00:28.580Z,19.10
2018-12-18T18:02:55.338Z,12.70
2018-12-18T18:05:22.100Z,10.60
2018-12-18T18:07:48.900Z,10.00
2018-12-18T18:10:15.644Z,10.53
2018-12-18T18:12:42.454Z,9.70
2018-12-18T18:15:09.228Z,9.63
2018-12-18T18:17:36.017Z,11.97
2018-12-18T18:20:02.765Z,13.10
2018-12-18T18:22:29.557Z,13.63
2018-12-18T18:24:56.292Z,11.37
2018-12-18T18:27:23.061Z,13.00
2018-12-18T18:29:49.844Z,15.03
2018-12-18T18:32:16.593Z,16.60
2018-12-18T18:34:43.557Z,12.87
2018-12-18T18:37:10.322Z,30.85
2018-12-18T18:39:37.097Z,12.80
2018-12-18T18:42:03.853Z,12.03
2018-12-18T18:44:30.684Z,11.03
2018-12-18T18:46:57.436Z,16.62
2018-12-18T18:49:24.308Z,18.07
2018-12-18T18:51:51.096Z,15.13
2018-12-18T18:54:17.880Z,18.20
2018-12-18T18:56:44.630Z,21.23
2018-12-18T18:59:11.448Z,15.27
2018-12-18T19:01:38.196Z,14.37
2018-12-18T19:04:04.989Z,12.97
2018-12-18T19:06:31.771Z,11.77
2018-12-18T19:08:58.589Z,12.80
2018-12-18T19:11:25.336Z,14.00
2018-12-18T19:13:52.116Z,12.60
2018-12-18T19:16:18.856Z,15.15
2018-12-18T19:18:45.653Z,13.20
2018-12-18T19:21:12.409Z,15.75
2018-12-18T19:23:39.200Z,18.07
2018-12-18T19:26:06.352Z,20.80
2018-12-18T19:28:33.190Z,15.40
2018-12-18T19:30:59.961Z,17.35
2018-12-18T19:33:26.717Z,15.63
2018-12-18T19:35:53.491Z,15.43
2018-12-18T19:38:20.265Z,15.70
2018-12-18T19:40:47.024Z,14.97
2018-12-18T19:43:13.807Z,14.50
2018-12-18T19:45:40.553Z,15.60
2018-12-18T19:48:07.672Z,15.60
2018-12-18T19:50:34.435Z,12.60
2018-12-18T19:53:01.202Z,10.30
2018-12-18T19:55:28.002Z,12.47
2018-12-18T19:57:54.789Z,12.20
2018-12-18T20:00:21.564Z,11.45
2018-12-18T20:02:48.324Z,12.93
2018-12-18T20:05:15.122Z,17.30
2018-12-18T20:07:41.856Z,17.85
2018-12-18T20:10:08.620Z,14.20
2018-12-18T20:12:35.360Z,15.65
2018-12-18T20:15:02.381Z,13.47
2018-12-18T20:17:29.136Z,13.40
2018-12-18T20:19:55.908Z,14.10
2018-12-18T20:22:22.669Z,15.80
2018-12-18T20:24:49.449Z,16.90
2018-12-18T20:27:16.204Z,16.37
2018-12-18T20:29:42.972Z,15.90
2018-12-18T20:32:09.756Z,13.17
2018-12-18T20:34:36.524Z,15.55
2018-12-18T20:37:03.277Z,12.93
2018-12-18T20:39:30.045Z,11.30
2018-12-18T20:41:56.792Z,12.47
2018-12-18T20:44:23.568Z,12.60
2018-12-18T20:46:50.346Z,11.10
2018-12-18T20:49:17.116Z,10.90
2018-12-18T20:51:43.861Z,9.80
2018-12-18T20:54:10.612Z,9.07
2018-12-18T20:56:37.372Z,10.30
2018-12-18T20:59:04.423Z,13.30
2018-12-18T21:01:30.906Z,14.03
2018-12-18T21:03:57.672Z,13.30
2018-12-18T21:06:24.405Z,12.47
2018-12-18T21:08:51.213Z,11.13
2018-12-18T21:11:17.965Z,8.80
2018-12-18T21:13:44.752Z,10.23
2018-12-18T21:16:11.497Z,10.58
2018-12-18T21:18:38.261Z,10.20
2018-12-18T21:21:05.075Z,11.67
2018-12-18T21:23:31.832Z,10.25
2018-12-18T21:25:58.626Z,11.67
2018-12-18T21:28:25.376Z,11.33
2018-12-18T21:30:52.176Z,11.40
2018-12-18T21:33:18.997Z,11.90
2018-12-18T21:35:45.752Z,12.00
2018-12-18T21:38:12.505Z,11.00
2018-12-18T21:40:39.287Z,10.07
2018-12-18T21:43:06.144Z,12.35
2018-12-18T21:45:32.924Z,12.60
2018-12-18T21:47:59.688Z,13.93
2018-12-18T21:50:26.460Z,20.37
2018-12-18T21:52:53.216Z,29.27
2018-12-18T21:55:20.002Z,18.50
2018-12-18T21:57:46.837Z,19.75
2018-12-18T22:00:13.588Z,20.45
2018-12-18T22:02:40.363Z,18.33
2018-12-18T22:05:07.145Z,21.77
2018-12-18T22:07:33.939Z,19.53
2018-12-18T22:10:00.713Z,22.20
2018-12-18T22:12:27.477Z,17.93
2018-12-18T22:14:54.246Z,20.90
2018-12-18T22:17:20.977Z,21.20
2018-12-18T22:19:47.793Z,21.10
2018-12-18T22:22:14.524Z,22.95
2018-12-18T22:24:41.332Z,18.93
2018-12-18T22:27:08.081Z,20.45
2018-12-18T22:29:34.929Z,17.13
2018-12-18T22:32:01.781Z,17.32
2018-12-18T22:34:28.585Z,15.00
2018-12-18T22:36:55.388Z,14.10
2018-12-18T22:39:22.168Z,14.47
2018-12-18T22:41:48.941Z,18.85
2018-12-18T22:44:15.727Z,17.83
2018-12-18T22:46:42.464Z,19.20
2018-12-18T22:49:09.276Z,15.60
2018-12-18T22:51:36.046Z,16.05
2018-12-18T22:54:02.788Z,14.73
2018-12-18T22:56:29.556Z,17.02
2018-12-18T22:58:56.364Z,15.48
2018-12-18T23:01:28.861Z,15.15
2018-12-18T23:03:55.617Z,13.53
2018-12-18T23:06:22.392Z,10.27
2018-12-18T23:08:50.412Z,10.50
2018-12-18T23:11:15.892Z,9.78
2018-12-18T23:13:42.644Z,9.20
2018-12-18T23:16:09.425Z,9.73
2018-12-18T23:18:36.184Z,8.13
2018-12-18T23:21:02.958Z,9.10
2018-12-18T23:23:29.715Z,7.60
2018-12-18T23:25:56.496Z,8.58
2018-12-18T23:28:23.237Z,8.70
2018-12-18T23:30:50.008Z,7.33
2018-12-18T23:33:16.751Z,8.30
2018-12-18T23:35:43.526Z,7.67
2018-12-18T23:38:10.259Z,7.85
2018-12-18T23:40:37.028Z,6.97
2018-12-18T23:43:03.777Z,7.05
2018-12-18T23:45:30.552Z,7.30
2018-12-18T23:47:57.289Z,9.15
2018-12-18T23:50:24.061Z,7.80
2018-12-18T23:52:50.796Z,7.60
2018-12-18T23:55:17.577Z,6.57
2018-12-18T23:57:44.348Z,8.40
